sensor_id;sensor_type;location;lat;lon;timestamp;P1;durP1;ratioP1;P2;durP2;ratioP2
38865;SDS011;62686;48.984;8.394;2023-03-12T00:01:18;11.80;;;7.50;;
38865;SDS011;62686;48.984;8.394;2023-03-12T00:03:48;13.07;;;7.60;;
38865;SDS011;62686;48.984;8.394;2023-03-12T00:06:17;10.73;;;7.87;;
38865;SDS011;62686;48.984;8.394;2023-03-12T00:08:47;12.67;;;7.13;;
38865;SDS011;62686;48.984;8.394;2023-03-12T00:11:18;9.00;;;5.93;;
38865;SDS011;62686;48.984;8.394;2023-03-12T00:13:48;9.80;;;6.60;;
38865;SDS011;62686;48.984;8.394;2023-03-12T00:16:17;10.27;;;6.80;;
38865;SDS011;62686;48.984;8.394;2023-03-12T00:18:47;9.13;;;6.50;;
38865;SDS011;62686;48.984;8.394;2023-03-12T00:21:17;11.17;;;6.60;;
38865;SDS011;62686;48.984;8.394;2023-03-12T00:23:47;11.23;;;7.90;;
38865;SDS011;62686;48.984;8.394;2023-03-12T00:26:18;19.00;;;10.60;;
38865;SDS011;62686;48.984;8.394;2023-03-12T00:28:48;48.93;;;27.63;;
38865;SDS011;62686;48.984;8.394;2023-03-12T00:31:17;50.40;;;30.23;;
38865;SDS011;62686;48.984;8.394;2023-03-12T00:33:47;62.97;;;37.33;;
38865;SDS011;62686;48.984;8.394;2023-03-12T00:36:19;52.33;;;31.70;;
38865;SDS011;62686;48.984;8.394;2023-03-12T00:38:50;51.40;;;31.30;;
38865;SDS011;62686;48.984;8.394;2023-03-12T00:41:20;32.90;;;20.47;;
38865;SDS011;62686;48.984;8.394;2023-03-12T00:43:50;38.77;;;21.77;;
38865;SDS011;62686;48.984;8.394;2023-03-12T00:46:19;34.43;;;19.60;;
38865;SDS011;62686;48.984;8.394;2023-03-12T00:48:48;29.43;;;18.87;;
38865;SDS011;62686;48.984;8.394;2023-03-12T00:51:17;23.07;;;15.90;;
38865;SDS011;62686;48.984;8.394;2023-03-12T00:53:45;21.03;;;13.83;;
38865;SDS011;62686;48.984;8.394;2023-03-12T00:56:14;20.63;;;13.27;;
38865;SDS011;62686;48.984;8.394;2023-03-12T00:58:43;22.90;;;15.27;;
38865;SDS011;62686;48.984;8.394;2023-03-12T01:01:11;22.60;;;16.00;;
38865;SDS011;62686;48.984;8.394;2023-03-12T01:03:40;16.90;;;12.20;;
38865;SDS011;62686;48.984;8.394;2023-03-12T01:06:10;17.30;;;10.40;;
38865;SDS011;62686;48.984;8.394;2023-03-12T01:08:38;16.37;;;8.80;;
38865;SDS011;62686;48.984;8.394;2023-03-12T01:11:07;13.73;;;10.00;;
38865;SDS011;62686;48.984;8.394;2023-03-12T01:13:38;14.93;;;9.03;;
38865;SDS011;62686;48.984;8.394;2023-03-12T01:16:08;14.97;;;9.67;;
38865;SDS011;62686;48.984;8.394;2023-03-12T01:18:36;13.13;;;8.47;;
38865;SDS011;62686;48.984;8.394;2023-03-12T01:21:05;11.20;;;7.70;;
38865;SDS011;62686;48.984;8.394;2023-03-12T01:23:36;11.10;;;7.53;;
38865;SDS011;62686;48.984;8.394;2023-03-12T01:26:04;10.03;;;7.00;;
38865;SDS011;62686;48.984;8.394;2023-03-12T01:28:32;11.97;;;7.87;;
38865;SDS011;62686;48.984;8.394;2023-03-12T01:31:05;9.70;;;7.03;;
38865;SDS011;62686;48.984;8.394;2023-03-12T01:33:35;18.40;;;7.73;;
38865;SDS011;62686;48.984;8.394;2023-03-12T01:36:03;9.83;;;6.47;;
38865;SDS011;62686;48.984;8.394;2023-03-12T01:38:32;8.97;;;6.57;;
38865;SDS011;62686;48.984;8.394;2023-03-12T01:41:00;9.20;;;7.07;;
38865;SDS011;62686;48.984;8.394;2023-03-12T01:43:30;12.33;;;7.70;;
38865;SDS011;62686;48.984;8.394;2023-03-12T01:48:54;10.30;;;6.30;;
38865;SDS011;62686;48.984;8.394;2023-03-12T01:51:24;11.27;;;6.77;;
38865;SDS011;62686;48.984;8.394;2023-03-12T01:53:55;12.47;;;6.67;;
38865;SDS011;62686;48.984;8.394;2023-03-12T01:56:27;10.10;;;6.97;;
38865;SDS011;62686;48.984;8.394;2023-03-12T01:58:59;10.43;;;6.50;;
38865;SDS011;62686;48.984;8.394;2023-03-12T02:01:31;11.83;;;6.43;;
38865;SDS011;62686;48.984;8.394;2023-03-12T02:04:02;10.73;;;6.47;;
38865;SDS011;62686;48.984;8.394;2023-03-12T02:06:32;13.63;;;5.90;;
38865;SDS011;62686;48.984;8.394;2023-03-12T02:09:05;10.40;;;6.40;;
38865;SDS011;62686;48.984;8.394;2023-03-12T02:11:34;8.33;;;5.77;;
38865;SDS011;62686;48.984;8.394;2023-03-12T02:14:02;10.93;;;6.33;;
38865;SDS011;62686;48.984;8.394;2023-03-12T02:16:30;9.87;;;6.03;;
38865;SDS011;62686;48.984;8.394;2023-03-12T02:18:59;8.83;;;5.90;;
38865;SDS011;62686;48.984;8.394;2023-03-12T02:21:31;8.50;;;5.83;;
38865;SDS011;62686;48.984;8.394;2023-03-12T02:24:02;10.53;;;5.73;;
38865;SDS011;62686;48.984;8.394;2023-03-12T02:26:38;10.77;;;6.07;;
38865;SDS011;62686;48.984;8.394;2023-03-12T02:29:08;9.23;;;5.87;;
38865;SDS011;62686;48.984;8.394;2023-03-12T02:31:37;12.33;;;5.67;;
38865;SDS011;62686;48.984;8.394;2023-03-12T02:34:09;10.70;;;5.90;;
38865;SDS011;62686;48.984;8.394;2023-03-12T02:36:37;14.77;;;5.97;;
38865;SDS011;62686;48.984;8.394;2023-03-12T02:39:05;11.57;;;5.60;;
38865;SDS011;62686;48.984;8.394;2023-03-12T02:41:34;7.83;;;4.93;;
38865;SDS011;62686;48.984;8.394;2023-03-12T02:44:08;7.43;;;4.97;;
38865;SDS011;62686;48.984;8.394;2023-03-12T02:46:40;6.10;;;4.63;;
38865;SDS011;62686;48.984;8.394;2023-03-12T02:49:09;9.63;;;5.20;;
38865;SDS011;62686;48.984;8.394;2023-03-12T02:51:38;7.30;;;5.07;;
38865;SDS011;62686;48.984;8.394;2023-03-12T02:54:08;7.60;;;5.23;;
38865;SDS011;62686;48.984;8.394;2023-03-12T02:56:37;9.20;;;5.20;;
38865;SDS011;62686;48.984;8.394;2023-03-12T02:59:06;7.40;;;4.70;;
38865;SDS011;62686;48.984;8.394;2023-03-12T03:01:36;14.97;;;4.77;;
38865;SDS011;62686;48.984;8.394;2023-03-12T03:04:05;9.33;;;4.83;;
38865;SDS011;62686;48.984;8.394;2023-03-12T03:06:34;8.33;;;4.20;;
38865;SDS011;62686;48.984;8.394;2023-03-12T03:09:06;9.33;;;4.70;;
38865;SDS011;62686;48.984;8.394;2023-03-12T03:11:35;9.20;;;5.07;;
38865;SDS011;62686;48.984;8.394;2023-03-12T03:14:03;6.70;;;4.20;;
38865;SDS011;62686;48.984;8.394;2023-03-12T03:16:33;11.43;;;4.30;;
38865;SDS011;62686;48.984;8.394;2023-03-12T03:19:02;9.13;;;4.60;;
38865;SDS011;62686;48.984;8.394;2023-03-12T03:21:31;6.83;;;4.50;;
38865;SDS011;62686;48.984;8.394;2023-03-12T03:24:00;9.10;;;4.33;;
38865;SDS011;62686;48.984;8.394;2023-03-12T03:26:28;10.03;;;4.13;;
38865;SDS011;62686;48.984;8.394;2023-03-12T03:28:56;8.10;;;3.70;;
38865;SDS011;62686;48.984;8.394;2023-03-12T03:31:24;7.07;;;3.80;;
38865;SDS011;62686;48.984;8.394;2023-03-12T03:33:54;6.37;;;4.10;;
38865;SDS011;62686;48.984;8.394;2023-03-12T03:36:22;8.53;;;4.00;;
38865;SDS011;62686;48.984;8.394;2023-03-12T03:38:51;8.57;;;4.37;;
38865;SDS011;62686;48.984;8.394;2023-03-12T03:41:19;7.50;;;3.70;;
38865;SDS011;62686;48.984;8.394;2023-03-12T03:43:48;5.57;;;3.80;;
38865;SDS011;62686;48.984;8.394;2023-03-12T03:46:16;5.53;;;3.70;;
38865;SDS011;62686;48.984;8.394;2023-03-12T03:48:44;8.07;;;4.10;;
38865;SDS011;62686;48.984;8.394;2023-03-12T03:51:14;5.63;;;3.60;;
38865;SDS011;62686;48.984;8.394;2023-03-12T03:53:42;7.97;;;4.10;;
38865;SDS011;62686;48.984;8.394;2023-03-12T03:56:11;6.80;;;4.17;;
38865;SDS011;62686;48.984;8.394;2023-03-12T03:58:42;6.83;;;3.73;;
38865;SDS011;62686;48.984;8.394;2023-03-12T04:01:12;9.67;;;3.70;;
38865;SDS011;62686;48.984;8.394;2023-03-12T04:03:40;7.37;;;3.70;;
38865;SDS011;62686;48.984;8.394;2023-03-12T04:06:09;5.87;;;3.50;;
38865;SDS011;62686;48.984;8.394;2023-03-12T04:08:39;7.33;;;3.97;;
38865;SDS011;62686;48.984;8.394;2023-03-12T04:11:07;7.17;;;3.57;;
38865;SDS011;62686;48.984;8.394;2023-03-12T04:13:37;7.17;;;4.30;;
38865;SDS011;62686;48.984;8.394;2023-03-12T04:16:06;9.83;;;3.30;;
38865;SDS011;62686;48.984;8.394;2023-03-12T04:18:35;5.73;;;3.23;;
38865;SDS011;62686;48.984;8.394;2023-03-12T04:21:04;7.07;;;3.77;;
38865;SDS011;62686;48.984;8.394;2023-03-12T04:23:33;6.63;;;3.47;;
38865;SDS011;62686;48.984;8.394;2023-03-12T04:26:03;9.27;;;3.07;;
38865;SDS011;62686;48.984;8.394;2023-03-12T04:28:31;5.43;;;3.10;;
38865;SDS011;62686;48.984;8.394;2023-03-12T04:31:02;7.07;;;3.30;;
38865;SDS011;62686;48.984;8.394;2023-03-12T04:33:32;4.87;;;3.00;;
38865;SDS011;62686;48.984;8.394;2023-03-12T04:36:02;7.03;;;3.60;;
38865;SDS011;62686;48.984;8.394;2023-03-12T04:38:30;9.37;;;3.20;;
38865;SDS011;62686;48.984;8.394;2023-03-12T04:40:59;4.23;;;2.93;;
38865;SDS011;62686;48.984;8.394;2023-03-12T04:43:30;9.27;;;3.40;;
38865;SDS011;62686;48.984;8.394;2023-03-12T04:45:59;5.50;;;3.43;;
38865;SDS011;62686;48.984;8.394;2023-03-12T04:48:28;5.63;;;3.10;;
38865;SDS011;62686;48.984;8.394;2023-03-12T04:50:56;6.70;;;2.80;;
38865;SDS011;62686;48.984;8.394;2023-03-12T04:53:24;5.27;;;3.13;;
38865;SDS011;62686;48.984;8.394;2023-03-12T04:55:53;7.27;;;2.97;;
38865;SDS011;62686;48.984;8.394;2023-03-12T04:58:21;8.30;;;3.37;;
38865;SDS011;62686;48.984;8.394;2023-03-12T05:00:51;7.07;;;3.20;;
38865;SDS011;62686;48.984;8.394;2023-03-12T05:03:19;5.67;;;3.40;;
38865;SDS011;62686;48.984;8.394;2023-03-12T05:05:47;5.77;;;3.40;;
38865;SDS011;62686;48.984;8.394;2023-03-12T05:08:15;8.97;;;3.97;;
38865;SDS011;62686;48.984;8.394;2023-03-12T05:10:44;6.43;;;3.30;;
38865;SDS011;62686;48.984;8.394;2023-03-12T05:13:12;5.27;;;3.20;;
38865;SDS011;62686;48.984;8.394;2023-03-12T05:15:41;8.47;;;3.97;;
38865;SDS011;62686;48.984;8.394;2023-03-12T05:18:11;5.97;;;3.47;;
38865;SDS011;62686;48.984;8.394;2023-03-12T05:20:39;6.33;;;3.10;;
38865;SDS011;62686;48.984;8.394;2023-03-12T05:23:08;7.00;;;4.00;;
38865;SDS011;62686;48.984;8.394;2023-03-12T05:25:37;6.17;;;3.27;;
38865;SDS011;62686;48.984;8.394;2023-03-12T05:28:06;8.90;;;3.80;;
38865;SDS011;62686;48.984;8.394;2023-03-12T05:30:35;6.80;;;3.83;;
38865;SDS011;62686;48.984;8.394;2023-03-12T05:33:05;5.13;;;3.20;;
38865;SDS011;62686;48.984;8.394;2023-03-12T05:35:34;6.47;;;3.77;;
38865;SDS011;62686;48.984;8.394;2023-03-12T05:38:02;6.57;;;3.63;;
38865;SDS011;62686;48.984;8.394;2023-03-12T05:40:31;6.53;;;3.20;;
38865;SDS011;62686;48.984;8.394;2023-03-12T05:42:59;5.70;;;3.00;;
38865;SDS011;62686;48.984;8.394;2023-03-12T05:45:27;5.97;;;3.63;;
38865;SDS011;62686;48.984;8.394;2023-03-12T05:47:55;7.27;;;3.60;;
38865;SDS011;62686;48.984;8.394;2023-03-12T05:50:24;7.73;;;3.50;;
38865;SDS011;62686;48.984;8.394;2023-03-12T05:52:54;7.23;;;3.50;;
38865;SDS011;62686;48.984;8.394;2023-03-12T05:55:22;5.37;;;3.40;;
38865;SDS011;62686;48.984;8.394;2023-03-12T05:57:50;5.87;;;3.50;;
38865;SDS011;62686;48.984;8.394;2023-03-12T06:00:19;6.27;;;3.27;;
38865;SDS011;62686;48.984;8.394;2023-03-12T06:02:47;5.93;;;3.43;;
38865;SDS011;62686;48.984;8.394;2023-03-12T06:05:15;4.90;;;3.37;;
38865;SDS011;62686;48.984;8.394;2023-03-12T06:07:44;6.90;;;3.53;;
38865;SDS011;62686;48.984;8.394;2023-03-12T06:10:13;6.23;;;3.70;;
38865;SDS011;62686;48.984;8.394;2023-03-12T06:12:42;5.00;;;3.30;;
38865;SDS011;62686;48.984;8.394;2023-03-12T06:15:10;5.53;;;3.30;;
38865;SDS011;62686;48.984;8.394;2023-03-12T06:17:39;6.57;;;3.60;;
38865;SDS011;62686;48.984;8.394;2023-03-12T06:20:07;10.17;;;3.87;;
38865;SDS011;62686;48.984;8.394;2023-03-12T06:22:37;6.47;;;3.97;;
38865;SDS011;62686;48.984;8.394;2023-03-12T06:25:05;5.63;;;3.50;;
38865;SDS011;62686;48.984;8.394;2023-03-12T06:27:35;9.40;;;3.90;;
38865;SDS011;62686;48.984;8.394;2023-03-12T06:30:04;9.30;;;3.67;;
38865;SDS011;62686;48.984;8.394;2023-03-12T06:32:33;5.53;;;3.37;;
38865;SDS011;62686;48.984;8.394;2023-03-12T06:35:02;10.03;;;4.03;;
38865;SDS011;62686;48.984;8.394;2023-03-12T06:37:31;5.97;;;3.80;;
38865;SDS011;62686;48.984;8.394;2023-03-12T06:39:59;7.47;;;3.77;;
38865;SDS011;62686;48.984;8.394;2023-03-12T06:42:27;6.97;;;4.17;;
38865;SDS011;62686;48.984;8.394;2023-03-12T06:44:57;9.70;;;3.40;;
38865;SDS011;62686;48.984;8.394;2023-03-12T06:47:25;9.27;;;3.77;;
38865;SDS011;62686;48.984;8.394;2023-03-12T06:49:53;6.37;;;3.57;;
38865;SDS011;62686;48.984;8.394;2023-03-12T06:52:21;9.37;;;4.47;;
38865;SDS011;62686;48.984;8.394;2023-03-12T06:54:49;5.93;;;3.50;;
38865;SDS011;62686;48.984;8.394;2023-03-12T06:57:18;9.43;;;4.47;;
38865;SDS011;62686;48.984;8.394;2023-03-12T06:59:46;9.40;;;4.27;;
38865;SDS011;62686;48.984;8.394;2023-03-12T07:02:17;6.90;;;3.97;;
38865;SDS011;62686;48.984;8.394;2023-03-12T07:04:45;7.03;;;3.60;;
38865;SDS011;62686;48.984;8.394;2023-03-12T07:07:13;5.70;;;3.63;;
38865;SDS011;62686;48.984;8.394;2023-03-12T07:09:42;20.17;;;11.43;;
38865;SDS011;62686;48.984;8.394;2023-03-12T07:12:10;12.50;;;7.57;;
38865;SDS011;62686;48.984;8.394;2023-03-12T07:14:38;12.47;;;6.77;;
38865;SDS011;62686;48.984;8.394;2023-03-12T07:17:06;15.93;;;8.93;;
38865;SDS011;62686;48.984;8.394;2023-03-12T07:19:36;22.73;;;12.07;;
38865;SDS011;62686;48.984;8.394;2023-03-12T07:22:04;10.63;;;5.50;;
38865;SDS011;62686;48.984;8.394;2023-03-12T07:24:32;8.00;;;4.03;;
38865;SDS011;62686;48.984;8.394;2023-03-12T07:27:00;19.87;;;9.87;;
38865;SDS011;62686;48.984;8.394;2023-03-12T07:29:29;32.87;;;17.33;;
38865;SDS011;62686;48.984;8.394;2023-03-12T07:31:57;18.10;;;9.77;;
38865;SDS011;62686;48.984;8.394;2023-03-12T07:34:25;12.17;;;6.83;;
38865;SDS011;62686;48.984;8.394;2023-03-12T07:36:55;10.33;;;5.37;;
38865;SDS011;62686;48.984;8.394;2023-03-12T07:39:23;10.47;;;6.30;;
38865;SDS011;62686;48.984;8.394;2023-03-12T07:41:51;8.63;;;5.23;;
38865;SDS011;62686;48.984;8.394;2023-03-12T07:44:20;10.20;;;6.93;;
38865;SDS011;62686;48.984;8.394;2023-03-12T07:46:48;10.13;;;4.67;;
38865;SDS011;62686;48.984;8.394;2023-03-12T07:49:16;9.57;;;4.63;;
38865;SDS011;62686;48.984;8.394;2023-03-12T07:51:45;11.03;;;4.70;;
38865;SDS011;62686;48.984;8.394;2023-03-12T07:54:14;9.00;;;5.03;;
38865;SDS011;62686;48.984;8.394;2023-03-12T07:56:43;8.70;;;4.90;;
38865;SDS011;62686;48.984;8.394;2023-03-12T07:59:11;9.70;;;4.87;;
38865;SDS011;62686;48.984;8.394;2023-03-12T08:01:39;7.87;;;4.80;;
38865;SDS011;62686;48.984;8.394;2023-03-12T08:04:09;6.87;;;4.77;;
38865;SDS011;62686;48.984;8.394;2023-03-12T08:06:38;7.70;;;4.97;;
38865;SDS011;62686;48.984;8.394;2023-03-12T08:09:08;8.67;;;4.50;;
38865;SDS011;62686;48.984;8.394;2023-03-12T08:11:37;6.67;;;3.90;;
38865;SDS011;62686;48.984;8.394;2023-03-12T08:14:06;9.40;;;4.20;;
38865;SDS011;62686;48.984;8.394;2023-03-12T08:16:34;5.57;;;3.73;;
38865;SDS011;62686;48.984;8.394;2023-03-12T08:19:02;8.80;;;4.40;;
38865;SDS011;62686;48.984;8.394;2023-03-12T08:21:31;7.40;;;3.70;;
38865;SDS011;62686;48.984;8.394;2023-03-12T08:23:59;8.93;;;4.33;;
38865;SDS011;62686;48.984;8.394;2023-03-12T08:26:27;8.67;;;5.10;;
38865;SDS011;62686;48.984;8.394;2023-03-12T08:28:57;7.47;;;5.20;;
38865;SDS011;62686;48.984;8.394;2023-03-12T08:31:26;8.63;;;4.90;;
38865;SDS011;62686;48.984;8.394;2023-03-12T08:33:54;12.93;;;7.30;;
38865;SDS011;62686;48.984;8.394;2023-03-12T08:36:23;12.23;;;7.47;;
38865;SDS011;62686;48.984;8.394;2023-03-12T08:38:51;9.43;;;6.03;;
38865;SDS011;62686;48.984;8.394;2023-03-12T08:41:19;8.30;;;5.47;;
38865;SDS011;62686;48.984;8.394;2023-03-12T08:43:47;9.53;;;5.73;;
38865;SDS011;62686;48.984;8.394;2023-03-12T08:46:17;16.80;;;6.23;;
38865;SDS011;62686;48.984;8.394;2023-03-12T08:48:45;11.33;;;6.40;;
38865;SDS011;62686;48.984;8.394;2023-03-12T08:51:13;10.77;;;6.40;;
38865;SDS011;62686;48.984;8.394;2023-03-12T08:53:42;12.27;;;6.70;;
38865;SDS011;62686;48.984;8.394;2023-03-12T08:56:10;11.57;;;6.23;;
38865;SDS011;62686;48.984;8.394;2023-03-12T08:58:38;7.80;;;5.93;;
38865;SDS011;62686;48.984;8.394;2023-03-12T09:01:07;7.77;;;5.60;;
38865;SDS011;62686;48.984;8.394;2023-03-12T09:03:39;7.43;;;5.60;;
38865;SDS011;62686;48.984;8.394;2023-03-12T09:06:08;12.37;;;6.23;;
38865;SDS011;62686;48.984;8.394;2023-03-12T09:08:38;10.03;;;5.97;;
38865;SDS011;62686;48.984;8.394;2023-03-12T09:11:07;12.17;;;8.60;;
38865;SDS011;62686;48.984;8.394;2023-03-12T09:13:37;11.00;;;7.00;;
38865;SDS011;62686;48.984;8.394;2023-03-12T09:16:25;10.37;;;5.97;;
38865;SDS011;62686;48.984;8.394;2023-03-12T09:18:55;9.60;;;6.43;;
38865;SDS011;62686;48.984;8.394;2023-03-12T09:21:23;10.90;;;5.53;;
38865;SDS011;62686;48.984;8.394;2023-03-12T09:23:52;8.57;;;5.17;;
38865;SDS011;62686;48.984;8.394;2023-03-12T09:26:20;7.70;;;5.07;;
38865;SDS011;62686;48.984;8.394;2023-03-12T09:28:49;10.17;;;5.30;;
38865;SDS011;62686;48.984;8.394;2023-03-12T09:31:17;5.63;;;4.80;;
38865;SDS011;62686;48.984;8.394;2023-03-12T09:33:46;9.70;;;5.50;;
38865;SDS011;62686;48.984;8.394;2023-03-12T09:36:15;11.17;;;5.53;;
38865;SDS011;62686;48.984;8.394;2023-03-12T09:38:43;9.97;;;5.43;;
38865;SDS011;62686;48.984;8.394;2023-03-12T09:41:14;5.90;;;4.70;;
38865;SDS011;62686;48.984;8.394;2023-03-12T09:43:53;7.23;;;4.70;;
38865;SDS011;62686;48.984;8.394;2023-03-12T09:46:26;8.63;;;4.87;;
38865;SDS011;62686;48.984;8.394;2023-03-12T09:49:00;8.83;;;4.73;;
38865;SDS011;62686;48.984;8.394;2023-03-12T09:51:34;8.00;;;5.23;;
38865;SDS011;62686;48.984;8.394;2023-03-12T09:54:20;6.93;;;4.77;;
38865;SDS011;62686;48.984;8.394;2023-03-12T09:56:54;8.87;;;5.43;;
38865;SDS011;62686;48.984;8.394;2023-03-12T09:59:27;8.27;;;5.83;;
38865;SDS011;62686;48.984;8.394;2023-03-12T10:01:55;6.10;;;4.97;;
38865;SDS011;62686;48.984;8.394;2023-03-12T10:04:30;6.43;;;4.90;;
38865;SDS011;62686;48.984;8.394;2023-03-12T10:07:24;8.00;;;5.97;;
38865;SDS011;62686;48.984;8.394;2023-03-12T10:13:05;6.97;;;5.03;;
38865;SDS011;62686;48.984;8.394;2023-03-12T10:15:48;7.77;;;5.83;;
38865;SDS011;62686;48.984;8.394;2023-03-12T10:18:27;8.20;;;5.90;;
38865;SDS011;62686;48.984;8.394;2023-03-12T10:21:16;7.30;;;5.23;;
38865;SDS011;62686;48.984;8.394;2023-03-12T10:23:53;7.73;;;4.90;;
38865;SDS011;62686;48.984;8.394;2023-03-12T10:26:34;7.17;;;5.20;;
38865;SDS011;62686;48.984;8.394;2023-03-12T10:29:08;5.80;;;4.93;;
38865;SDS011;62686;48.984;8.394;2023-03-12T10:31:44;7.37;;;5.07;;
38865;SDS011;62686;48.984;8.394;2023-03-12T10:34:20;9.27;;;5.90;;
38865;SDS011;62686;48.984;8.394;2023-03-12T10:36:53;6.53;;;4.90;;
38865;SDS011;62686;48.984;8.394;2023-03-12T10:39:29;5.83;;;5.23;;
38865;SDS011;62686;48.984;8.394;2023-03-12T10:41:57;7.90;;;4.90;;
38865;SDS011;62686;48.984;8.394;2023-03-12T10:44:27;7.90;;;5.13;;
38865;SDS011;62686;48.984;8.394;2023-03-12T10:46:57;7.00;;;4.60;;
38865;SDS011;62686;48.984;8.394;2023-03-12T10:49:32;6.32;;;5.00;;
38865;SDS011;62686;48.984;8.394;2023-03-12T10:52:04;7.68;;;5.15;;
38865;SDS011;62686;48.984;8.394;2023-03-12T10:54:43;6.00;;;4.50;;
38865;SDS011;62686;48.984;8.394;2023-03-12T10:57:13;5.18;;;4.65;;
38865;SDS011;62686;48.984;8.394;2023-03-12T10:59:43;7.32;;;4.47;;
38865;SDS011;62686;48.984;8.394;2023-03-12T11:02:30;6.25;;;4.30;;
38865;SDS011;62686;48.984;8.394;2023-03-12T11:05:01;5.28;;;4.28;;
38865;SDS011;62686;48.984;8.394;2023-03-12T11:07:36;5.15;;;4.13;;
38865;SDS011;62686;48.984;8.394;2023-03-12T11:10:13;7.72;;;4.63;;
38865;SDS011;62686;48.984;8.394;2023-03-12T11:12:51;6.53;;;3.65;;
38865;SDS011;62686;48.984;8.394;2023-03-12T11:15:25;6.85;;;3.80;;
38865;SDS011;62686;48.984;8.394;2023-03-12T11:20:48;5.57;;;3.65;;
38865;SDS011;62686;48.984;8.394;2023-03-12T11:23:20;6.28;;;3.47;;
38865;SDS011;62686;48.984;8.394;2023-03-12T11:25:52;6.75;;;3.72;;
38865;SDS011;62686;48.984;8.394;2023-03-12T11:28:24;7.57;;;4.20;;
38865;SDS011;62686;48.984;8.394;2023-03-12T11:30:56;6.07;;;3.50;;
38865;SDS011;62686;48.984;8.394;2023-03-12T11:33:26;6.93;;;3.25;;
38865;SDS011;62686;48.984;8.394;2023-03-12T11:38:55;7.05;;;3.58;;
38865;SDS011;62686;48.984;8.394;2023-03-12T11:41:35;7.35;;;4.53;;
38865;SDS011;62686;48.984;8.394;2023-03-12T11:44:19;6.90;;;3.08;;
38865;SDS011;62686;48.984;8.394;2023-03-12T11:47:02;8.57;;;3.47;;
38865;SDS011;62686;48.984;8.394;2023-03-12T11:49:45;9.15;;;4.50;;
38865;SDS011;62686;48.984;8.394;2023-03-12T11:52:29;5.75;;;3.55;;
38865;SDS011;62686;48.984;8.394;2023-03-12T11:55:10;9.85;;;5.47;;
38865;SDS011;62686;48.984;8.394;2023-03-12T11:58:01;7.72;;;4.10;;
38865;SDS011;62686;48.984;8.394;2023-03-12T12:00:47;6.57;;;3.70;;
38865;SDS011;62686;48.984;8.394;2023-03-12T12:06:31;5.45;;;3.35;;
38865;SDS011;62686;48.984;8.394;2023-03-12T12:09:14;6.07;;;3.60;;
38865;SDS011;62686;48.984;8.394;2023-03-12T12:11:51;6.45;;;3.67;;
38865;SDS011;62686;48.984;8.394;2023-03-12T12:14:36;7.28;;;4.13;;
38865;SDS011;62686;48.984;8.394;2023-03-12T12:17:17;5.85;;;3.33;;
38865;SDS011;62686;48.984;8.394;2023-03-12T12:20:00;7.65;;;3.17;;
38865;SDS011;62686;48.984;8.394;2023-03-12T12:22:43;10.02;;;3.90;;
38865;SDS011;62686;48.984;8.394;2023-03-12T12:25:22;5.97;;;3.03;;
38865;SDS011;62686;48.984;8.394;2023-03-12T12:28:01;7.65;;;2.55;;
38865;SDS011;62686;48.984;8.394;2023-03-12T12:30:49;3.45;;;2.47;;
38865;SDS011;62686;48.984;8.394;2023-03-12T12:33:28;6.05;;;2.92;;
38865;SDS011;62686;48.984;8.394;2023-03-12T12:36:09;6.63;;;2.63;;
38865;SDS011;62686;48.984;8.394;2023-03-12T12:38:38;4.50;;;2.45;;
38865;SDS011;62686;48.984;8.394;2023-03-12T12:41:10;6.30;;;3.08;;
38865;SDS011;62686;48.984;8.394;2023-03-12T12:43:43;5.07;;;2.85;;
38865;SDS011;62686;48.984;8.394;2023-03-12T12:46:17;6.43;;;2.78;;
38865;SDS011;62686;48.984;8.394;2023-03-12T12:48:49;5.22;;;2.75;;
38865;SDS011;62686;48.984;8.394;2023-03-12T12:51:21;6.60;;;2.85;;
38865;SDS011;62686;48.984;8.394;2023-03-12T12:53:57;4.93;;;2.33;;
38865;SDS011;62686;48.984;8.394;2023-03-12T12:56:29;7.40;;;2.85;;
38865;SDS011;62686;48.984;8.394;2023-03-12T12:59:01;6.63;;;2.50;;
38865;SDS011;62686;48.984;8.394;2023-03-12T13:01:50;7.85;;;2.67;;
38865;SDS011;62686;48.984;8.394;2023-03-12T13:04:22;10.45;;;3.13;;
38865;SDS011;62686;48.984;8.394;2023-03-12T13:06:55;7.30;;;2.35;;
38865;SDS011;62686;48.984;8.394;2023-03-12T13:09:35;8.00;;;2.72;;
38865;SDS011;62686;48.984;8.394;2023-03-12T13:12:07;9.80;;;2.53;;
38865;SDS011;62686;48.984;8.394;2023-03-12T13:14:45;9.02;;;3.03;;
38865;SDS011;62686;48.984;8.394;2023-03-12T13:20:09;7.57;;;2.63;;
38865;SDS011;62686;48.984;8.394;2023-03-12T13:25:40;8.25;;;3.28;;
38865;SDS011;62686;48.984;8.394;2023-03-12T13:28:28;10.70;;;4.35;;
38865;SDS011;62686;48.984;8.394;2023-03-12T13:31:02;8.02;;;2.83;;
38865;SDS011;62686;48.984;8.394;2023-03-12T13:33:47;15.23;;;3.60;;
38865;SDS011;62686;48.984;8.394;2023-03-12T13:36:20;10.30;;;3.10;;
38865;SDS011;62686;48.984;8.394;2023-03-12T13:38:54;8.70;;;3.03;;
38865;SDS011;62686;48.984;8.394;2023-03-12T13:41:29;9.05;;;3.22;;
38865;SDS011;62686;48.984;8.394;2023-03-12T13:43:59;10.45;;;2.75;;
38865;SDS011;62686;48.984;8.394;2023-03-12T13:46:53;9.82;;;3.08;;
38865;SDS011;62686;48.984;8.394;2023-03-12T13:49:27;10.73;;;3.35;;
38865;SDS011;62686;48.984;8.394;2023-03-12T13:52:17;9.13;;;3.00;;
38865;SDS011;62686;48.984;8.394;2023-03-12T13:54:48;10.50;;;3.35;;
38865;SDS011;62686;48.984;8.394;2023-03-12T13:57:33;10.18;;;3.33;;
38865;SDS011;62686;48.984;8.394;2023-03-12T14:00:10;9.98;;;2.95;;
38865;SDS011;62686;48.984;8.394;2023-03-12T14:02:44;10.77;;;3.20;;
38865;SDS011;62686;48.984;8.394;2023-03-12T14:05:17;14.95;;;3.30;;
38865;SDS011;62686;48.984;8.394;2023-03-12T14:07:59;12.68;;;3.42;;
38865;SDS011;62686;48.984;8.394;2023-03-12T14:10:49;13.20;;;3.55;;
38865;SDS011;62686;48.984;8.394;2023-03-12T14:13:34;9.30;;;3.08;;
38865;SDS011;62686;48.984;8.394;2023-03-12T14:16:13;10.57;;;3.00;;
38865;SDS011;62686;48.984;8.394;2023-03-12T14:18:48;11.02;;;3.38;;
38865;SDS011;62686;48.984;8.394;2023-03-12T14:21:20;8.32;;;3.17;;
38865;SDS011;62686;48.984;8.394;2023-03-12T14:23:51;8.00;;;3.33;;
38865;SDS011;62686;48.984;8.394;2023-03-12T14:26:23;15.40;;;3.90;;
38865;SDS011;62686;48.984;8.394;2023-03-12T14:28:56;10.82;;;3.20;;
38865;SDS011;62686;48.984;8.394;2023-03-12T14:31:27;10.75;;;3.70;;
38865;SDS011;62686;48.984;8.394;2023-03-12T14:33:57;10.35;;;3.85;;
38865;SDS011;62686;48.984;8.394;2023-03-12T14:36:35;10.98;;;3.20;;
38865;SDS011;62686;48.984;8.394;2023-03-12T14:39:09;11.75;;;3.13;;
38865;SDS011;62686;48.984;8.394;2023-03-12T14:41:45;13.85;;;3.78;;
38865;SDS011;62686;48.984;8.394;2023-03-12T14:44:20;8.02;;;3.15;;
38865;SDS011;62686;48.984;8.394;2023-03-12T14:46:56;9.20;;;2.60;;
38865;SDS011;62686;48.984;8.394;2023-03-12T14:49:26;14.55;;;3.50;;
38865;SDS011;62686;48.984;8.394;2023-03-12T14:51:56;13.65;;;3.15;;
38865;SDS011;62686;48.984;8.394;2023-03-12T14:54:25;13.95;;;3.38;;
38865;SDS011;62686;48.984;8.394;2023-03-12T14:56:54;8.93;;;2.90;;
38865;SDS011;62686;48.984;8.394;2023-03-12T14:59:24;11.45;;;3.30;;
38865;SDS011;62686;48.984;8.394;2023-03-12T15:01:57;13.38;;;3.33;;
38865;SDS011;62686;48.984;8.394;2023-03-12T15:04:27;15.27;;;3.60;;
38865;SDS011;62686;48.984;8.394;2023-03-12T15:06:58;12.40;;;2.92;;
38865;SDS011;62686;48.984;8.394;2023-03-12T15:09:30;12.13;;;3.05;;
38865;SDS011;62686;48.984;8.394;2023-03-12T15:12:02;10.50;;;3.00;;
38865;SDS011;62686;48.984;8.394;2023-03-12T15:14:33;9.48;;;2.78;;
38865;SDS011;62686;48.984;8.394;2023-03-12T15:17:05;12.35;;;3.63;;
38865;SDS011;62686;48.984;8.394;2023-03-12T15:19:35;11.15;;;3.08;;
38865;SDS011;62686;48.984;8.394;2023-03-12T15:22:07;8.88;;;2.65;;
38865;SDS011;62686;48.984;8.394;2023-03-12T15:24:40;12.02;;;2.50;;
38865;SDS011;62686;48.984;8.394;2023-03-12T15:27:29;9.73;;;2.97;;
38865;SDS011;62686;48.984;8.394;2023-03-12T15:29:59;8.13;;;2.72;;